Skip Navigation Links Skip Navigation Links

Current Weather

Bishop International, Flint, Mich.

For information only: do not use for flight planning or navigation.
Latest weather
Observation time Saturday, October 19, 2019 5:53 AM EDT
Local time Saturday, October 19, 2019 6:41 AM EDT
Flight conditions Visual Meteorological Conditions
Winds
Wind direction South-Southeast (160°)
Wind speed 3 mph
Visibility 10 mi.
Sky condition
Ceiling unlimited
Sky clear
Temperature 37°F
Dewpoint 34°F
Altimeter 30.00 in.Hg
Derived measurements
Relative humidity 89%
Wind chill 34°F
Density altitude -691 ft.
Sea-level pressure 30.01 in.Hg
Remarks
Automated weather observing station with precipitation discriminator.
METAR KFNT 190953Z 16003KT 10SM CLR 03/01 A3000 RMK AO2 SLP164 T00280011

Settings

Location code

InnerDrive.Weather 4.0.6770.0 Release CLR 4.0.30319.42000
Copyright ©2018 Inner Drive Technology. All rights reserved. Portions Copyright ©1986-2018 David Braverman.

Find weather

Site navigation


Skip Navigation Links

Place info

Page info

PayPal - The safer, easier way to pay online!

Return home.

Copyright ©2019 Inner Drive Technology. Purveyors of fine, hand-crafted computer software. Page printed 2019-10-19T10:41:18 UTC.